Warning: Javascript must be enabled to use all the features on this page!


Page Loading - Please Wait...

* We've detected you're using a mobile device. Find our Next Generation Station Page here.
Click to hideNews Bulletins

Peak Streamflow for the Nation

USGS 02120780 SECOND CREEK NEAR BARBER, NC

Rowan County, North Carolina
Hydrologic Unit Code 03040102
Latitude  35°43'03.39", Longitude  80°35'45.87" NAD83
Drainage area 118  square miles
Gage datum 642.53 feet above NAVD88
Output formats
Table
Graph
Tab-separated file
peakfq (watstore) format
Reselect output format
Water
Year
Date Gage
Height
(feet)
Stream-
flow
(cfs)
1980 1980-01-18 13.01 2,130
1981 1981-06-02 12.36 1,960
1982 1982-01-04 12.72 2,050
1983 1983-02-15 12.59 2,020
1984 1984-04-10 14.50 2,550
1985 1985-02-01 11.98 1,860
1986 1985-11-22 14.14 2,530
1987 1987-04-16 16.92 5,820
1988 1987-11-27 11.96 1,990
1989 1989-03-24 13.52 2,650
1990 1989-10-02 15.36 3,880
1991 1991-03-29 14.70 3,370
1992 1992-06-05 13.73 2,740
1993 1993-03-24 15.99 4,390
1994 1994-03-02 11.91 1,970
1995 1995-08-28 17.28 8,560
1996 1995-11-08 14.02 3,170
1997 1997-04-29 13.96 2,660
1998 1998-01-28 13.96 3,160
1999 1999-01-24 9.36 1,230
2000 1999-10-11 9.57 1,280
2001 2001-03-30 11.14 1,690
2002 2002-01-23 9.87 1,350
2003 2003-04-11 16.39 6,330
2004 2004-09-28 15.64 4,840
2005 2004-12-10 12.63 2,320
2006 2006-01-14 11.02 1,650
2007 2007-03-02 13.93 3,140
2008 2008-08-27 12.28 2,150
2009 2009-06-05 12.24 2,130
2010 2010-02-06 15.51 4,620
2011 2011-07-09 11.56 2,180
2012 2011-11-17 13.55 3,070
2013 2013-01-18 12.22 2,460
2014 2014-01-12 14.44 3,520
2015 2015-04-20 11.92 2,330
2016 2015-12-24 12.34 2,510
2017 2017-04-24 14.66 3,710
2018 2018-09-17 15.87 4,700
2019 2018-10-12 18.13 7,110
2020 2020-02-07 18.58 7,670
2021 2020-11-13 16.58  
2022 2022-03-12 12.13 2,420
2023 2022-12-23 12.82 2,730